createdAt,value
2018-08-25T00:00:52.639Z,15.64
2018-08-25T00:01:53.200Z,15.64
2018-08-25T00:02:53.771Z,15.64
2018-08-25T00:03:54.326Z,15.55
2018-08-25T00:04:54.877Z,15.61
2018-08-25T00:05:55.430Z,15.71
2018-08-25T00:06:55.969Z,15.59
2018-08-25T00:07:56.524Z,15.67
2018-08-25T00:08:57.074Z,15.64
2018-08-25T00:09:57.628Z,15.67
2018-08-25T00:10:58.179Z,15.67
2018-08-25T00:11:58.725Z,15.68
2018-08-25T00:12:59.277Z,15.64
2018-08-25T00:13:59.832Z,15.68
2018-08-25T00:15:00.386Z,15.64
2018-08-25T00:16:00.940Z,15.67
2018-08-25T00:17:01.491Z,15.62
2018-08-25T00:18:02.038Z,15.69
2018-08-25T00:19:02.590Z,15.64
2018-08-25T00:20:03.142Z,15.65
2018-08-25T00:21:03.695Z,15.61
2018-08-25T00:22:04.247Z,15.62
2018-08-25T00:23:04.792Z,15.62
2018-08-25T00:24:05.346Z,15.65
2018-08-25T00:25:05.897Z,15.57
2018-08-25T00:26:06.444Z,15.68
2018-08-25T00:27:06.998Z,15.69
2018-08-25T00:28:07.553Z,15.64
2018-08-25T00:29:08.104Z,15.64
2018-08-25T00:30:08.655Z,15.55
2018-08-25T00:31:09.214Z,15.54
2018-08-25T00:32:09.767Z,15.59
2018-08-25T00:33:10.320Z,15.55
2018-08-25T00:34:10.873Z,15.49
2018-08-25T00:35:11.428Z,15.49
2018-08-25T00:36:11.972Z,15.46
2018-08-25T00:37:12.524Z,15.44
2018-08-25T00:38:13.074Z,15.46
2018-08-25T00:39:13.621Z,15.43
2018-08-25T00:40:14.176Z,15.42
2018-08-25T00:41:14.726Z,15.46
2018-08-25T00:42:15.277Z,15.51
2018-08-25T00:43:15.822Z,15.49
2018-08-25T00:44:16.379Z,15.47
2018-08-25T00:45:16.929Z,15.49
2018-08-25T00:46:17.485Z,15.51
2018-08-25T00:47:18.035Z,15.46
2018-08-25T00:48:18.585Z,15.47
2018-08-25T00:49:19.137Z,15.46
2018-08-25T00:50:19.683Z,15.43
2018-08-25T00:51:20.238Z,15.47
2018-08-25T00:52:20.787Z,15.47
2018-08-25T00:53:21.335Z,15.34
2018-08-25T00:54:21.876Z,15.37
2018-08-25T00:55:22.429Z,15.39
2018-08-25T00:56:22.987Z,15.50
2018-08-25T00:57:23.554Z,15.40
2018-08-25T00:58:24.079Z,15.36
2018-08-25T00:59:24.667Z,15.34
2018-08-25T01:00:25.171Z,15.46
2018-08-25T01:01:25.723Z,15.40
2018-08-25T01:02:26.280Z,15.46
2018-08-25T01:03:26.828Z,15.39
2018-08-25T01:04:27.383Z,15.37
2018-08-25T01:05:27.935Z,15.39
2018-08-25T01:06:28.492Z,15.28
2018-08-25T01:07:29.046Z,15.32
2018-08-25T01:08:29.591Z,15.36
2018-08-25T01:09:30.144Z,15.40
2018-08-25T01:10:30.698Z,15.42
2018-08-25T01:11:31.253Z,15.36
2018-08-25T01:12:31.808Z,15.34
2018-08-25T01:13:32.361Z,15.37
2018-08-25T01:14:32.907Z,15.37
2018-08-25T01:15:33.509Z,15.39
2018-08-25T01:16:33.999Z,15.43
2018-08-25T01:17:34.553Z,15.46
2018-08-25T01:18:35.101Z,15.47
2018-08-25T01:19:35.652Z,15.46
2018-08-25T01:20:36.201Z,15.43
2018-08-25T01:21:36.752Z,15.39
2018-08-25T01:22:37.295Z,15.43
2018-08-25T01:23:37.849Z,15.39
2018-08-25T01:24:38.401Z,15.39
2018-08-25T01:25:38.953Z,15.47
2018-08-25T01:26:39.506Z,15.47
2018-08-25T01:27:40.055Z,15.34
2018-08-25T01:28:40.615Z,15.51
2018-08-25T01:29:41.166Z,15.42
2018-08-25T01:30:41.709Z,15.34
2018-08-25T01:31:42.265Z,15.40
2018-08-25T01:32:42.819Z,15.36
2018-08-25T01:33:43.368Z,15.34
2018-08-25T01:34:43.916Z,15.44
2018-08-25T01:35:44.468Z,15.40
2018-08-25T01:36:45.018Z,15.46
2018-08-25T01:37:45.559Z,15.36
2018-08-25T01:38:46.113Z,15.32
2018-08-25T01:39:46.666Z,15.46
2018-08-25T01:40:47.215Z,15.46
2018-08-25T01:41:47.769Z,15.42
2018-08-25T01:42:48.322Z,15.44
2018-08-25T01:43:48.877Z,15.42
2018-08-25T01:44:49.422Z,15.43
2018-08-25T01:45:49.978Z,15.44
2018-08-25T01:46:50.521Z,15.46
2018-08-25T01:47:51.084Z,15.47
2018-08-25T01:48:51.624Z,15.37
2018-08-25T01:49:52.177Z,15.44
2018-08-25T01:50:52.726Z,15.37
2018-08-25T01:51:53.278Z,15.34
2018-08-25T01:52:53.823Z,15.31
2018-08-25T01:53:54.375Z,15.44
2018-08-25T01:54:54.922Z,15.31
2018-08-25T01:55:55.474Z,15.28
2018-08-25T01:56:56.032Z,15.34
2018-08-25T01:57:56.578Z,15.37
2018-08-25T01:58:57.131Z,15.29
2018-08-25T01:59:57.677Z,15.31
2018-08-25T02:00:58.229Z,15.28
2018-08-25T02:01:58.775Z,15.29
2018-08-25T02:02:59.331Z,15.26
2018-08-25T02:03:59.892Z,15.19
2018-08-25T02:05:00.442Z,15.31
2018-08-25T02:06:00.985Z,15.31
2018-08-25T02:07:01.528Z,15.39
2018-08-25T02:08:02.084Z,15.29
2018-08-25T02:09:02.630Z,15.39
2018-08-25T02:10:03.180Z,15.39
2018-08-25T02:11:03.732Z,15.34
2018-08-25T02:12:04.284Z,15.32
2018-08-25T02:13:04.836Z,15.47
2018-08-25T02:14:05.380Z,15.46
2018-08-25T02:15:05.928Z,15.46
2018-08-25T02:16:06.482Z,15.46
2018-08-25T02:17:07.039Z,15.46
2018-08-25T02:18:07.587Z,15.40
2018-08-25T02:19:08.136Z,15.32
2018-08-25T02:20:08.686Z,15.31
2018-08-25T02:21:09.232Z,15.29
2018-08-25T02:22:09.779Z,15.24
2018-08-25T02:23:10.334Z,15.17
2018-08-25T02:24:10.885Z,15.29
2018-08-25T02:25:11.437Z,15.21
2018-08-25T02:26:11.989Z,15.21
2018-08-25T02:27:12.542Z,15.19
2018-08-25T02:28:13.121Z,15.04
2018-08-25T02:29:13.639Z,15.11
2018-08-25T02:30:14.187Z,15.00
2018-08-25T02:31:14.741Z,15.06
2018-08-25T02:32:15.292Z,14.92
2018-08-25T02:33:15.845Z,14.88
2018-08-25T02:34:16.396Z,14.86
2018-08-25T02:35:16.955Z,14.89
2018-08-25T02:36:17.502Z,14.82
2018-08-25T02:37:18.052Z,14.86
2018-08-25T02:38:18.607Z,14.72
2018-08-25T02:39:19.150Z,14.72
2018-08-25T02:40:19.694Z,14.65
2018-08-25T02:41:20.245Z,14.68
2018-08-25T02:42:20.800Z,14.63
2018-08-25T02:43:21.356Z,14.65
2018-08-25T02:44:21.908Z,14.63
2018-08-25T02:45:22.458Z,14.62
2018-08-25T02:46:23.008Z,14.57
2018-08-25T02:47:23.562Z,14.54
2018-08-25T02:48:24.111Z,14.44
2018-08-25T02:49:24.666Z,14.48
2018-08-25T02:50:25.207Z,14.39
2018-08-25T02:51:25.760Z,14.35
2018-08-25T02:52:26.303Z,14.44
2018-08-25T02:53:26.856Z,14.33
2018-08-25T02:54:27.409Z,14.35
2018-08-25T02:55:27.960Z,14.35
2018-08-25T02:56:28.520Z,14.36
2018-08-25T02:57:29.064Z,14.21
2018-08-25T02:58:29.616Z,14.17
2018-08-25T02:59:30.168Z,14.32
2018-08-25T03:00:30.717Z,14.18
2018-08-25T03:01:31.271Z,14.33
2018-08-25T03:02:31.823Z,14.26
2018-08-25T03:03:32.378Z,14.26
2018-08-25T03:04:32.932Z,14.25
2018-08-25T03:05:33.476Z,14.32
2018-08-25T03:06:34.029Z,14.26
2018-08-25T03:07:34.581Z,14.29
2018-08-25T03:08:35.132Z,14.18
2018-08-25T03:09:35.691Z,14.14
2018-08-25T03:10:36.238Z,14.15
2018-08-25T03:11:36.791Z,14.10
2018-08-25T03:12:37.340Z,14.21
2018-08-25T03:13:37.920Z,14.21
2018-08-25T03:14:38.448Z,14.14
2018-08-25T03:15:38.996Z,14.00
2018-08-25T03:16:39.548Z,14.02
2018-08-25T03:17:40.099Z,14.00
2018-08-25T03:18:40.652Z,13.96
2018-08-25T03:19:41.200Z,13.84
2018-08-25T03:20:41.753Z,13.75
2018-08-25T03:21:42.306Z,13.74
2018-08-25T03:22:42.858Z,13.77
2018-08-25T03:23:43.411Z,13.77
2018-08-25T03:24:43.961Z,13.60
2018-08-25T03:25:44.508Z,13.49
2018-08-25T03:26:45.057Z,13.41
2018-08-25T03:27:45.609Z,13.35
2018-08-25T03:28:46.161Z,13.33
2018-08-25T03:29:46.712Z,13.38
2018-08-25T03:30:47.265Z,13.27
2018-08-25T03:31:47.812Z,13.19
2018-08-25T03:32:48.369Z,13.23
2018-08-25T03:33:48.918Z,13.19
2018-08-25T03:34:49.471Z,13.23
2018-08-25T03:35:50.018Z,13.15
2018-08-25T03:36:50.567Z,13.20
2018-08-25T03:37:51.113Z,13.15
2018-08-25T03:38:51.656Z,13.12
2018-08-25T03:39:52.200Z,13.04
2018-08-25T03:40:52.745Z,13.02
2018-08-25T03:41:53.291Z,13.01
2018-08-25T03:42:53.844Z,13.00
2018-08-25T03:43:54.395Z,12.97
2018-08-25T03:44:54.945Z,12.94
2018-08-25T03:45:55.499Z,12.95
2018-08-25T03:46:56.053Z,12.97
2018-08-25T03:47:56.607Z,12.87
2018-08-25T03:48:57.158Z,12.93
2018-08-25T03:49:57.707Z,12.89
2018-08-25T03:50:58.263Z,12.87
2018-08-25T03:51:58.810Z,12.82
2018-08-25T03:52:59.353Z,12.85
2018-08-25T03:53:59.904Z,12.85
2018-08-25T03:55:00.449Z,12.83
2018-08-25T03:56:01.001Z,12.87
2018-08-25T03:57:01.552Z,12.82
2018-08-25T03:58:02.102Z,12.77
2018-08-25T03:59:02.658Z,12.75
2018-08-25T04:00:03.205Z,12.69
2018-08-25T04:01:03.750Z,12.68
2018-08-25T04:02:04.303Z,12.68
2018-08-25T04:03:04.848Z,12.69
2018-08-25T04:04:05.388Z,12.52
2018-08-25T04:05:05.940Z,12.60
2018-08-25T04:06:06.490Z,12.62
2018-08-25T04:07:07.046Z,12.61
2018-08-25T04:08:07.590Z,12.50
2018-08-25T04:09:08.145Z,12.52
2018-08-25T04:10:08.697Z,12.47
2018-08-25T04:11:09.248Z,12.52
2018-08-25T04:12:09.790Z,12.39
2018-08-25T04:13:10.344Z,12.47
2018-08-25T04:14:10.897Z,12.53
2018-08-25T04:15:11.448Z,12.47
2018-08-25T04:16:12.000Z,12.49
2018-08-25T04:17:12.555Z,12.49
2018-08-25T04:18:13.105Z,12.44
2018-08-25T04:19:13.650Z,12.44
2018-08-25T04:20:14.204Z,12.39
2018-08-25T04:21:14.749Z,12.43
2018-08-25T04:22:15.373Z,12.35
2018-08-25T04:23:15.848Z,12.32
2018-08-25T04:24:16.400Z,12.34
2018-08-25T04:25:16.954Z,12.28
2018-08-25T04:26:17.506Z,12.32
2018-08-25T04:27:18.061Z,12.37
2018-08-25T04:28:18.611Z,12.28
2018-08-25T04:29:19.183Z,12.35
2018-08-25T04:30:19.724Z,12.32
2018-08-25T04:31:20.275Z,12.25
2018-08-25T04:32:20.821Z,12.29
2018-08-25T04:33:21.378Z,12.29
2018-08-25T04:34:21.919Z,12.27
2018-08-25T04:35:22.473Z,12.31
2018-08-25T04:36:23.034Z,12.24
2018-08-25T04:37:23.583Z,12.14
2018-08-25T04:38:24.131Z,12.13
2018-08-25T04:39:24.677Z,12.13
2018-08-25T04:40:25.236Z,12.13
2018-08-25T04:41:25.842Z,12.11
2018-08-25T04:42:26.331Z,12.22
2018-08-25T04:43:26.889Z,12.18
2018-08-25T04:44:27.445Z,12.13
2018-08-25T04:45:28.001Z,12.13
2018-08-25T04:46:28.554Z,12.09
2018-08-25T04:47:29.101Z,12.14
2018-08-25T04:48:29.654Z,12.09
2018-08-25T04:49:30.202Z,12.14
2018-08-25T04:50:30.757Z,12.16
2018-08-25T04:51:31.310Z,12.10
2018-08-25T04:52:31.865Z,12.06
2018-08-25T04:53:32.418Z,12.06
2018-08-25T04:54:32.972Z,12.18
2018-08-25T04:55:33.526Z,12.16
2018-08-25T04:56:34.082Z,12.09
2018-08-25T04:57:34.633Z,12.11
2018-08-25T04:58:35.185Z,12.13
2018-08-25T04:59:35.744Z,12.11
2018-08-25T05:00:36.297Z,12.09
2018-08-25T05:01:36.846Z,12.10
2018-08-25T05:02:37.396Z,12.22
2018-08-25T05:03:37.950Z,12.22
2018-08-25T05:04:38.506Z,12.22
2018-08-25T05:05:39.063Z,12.22
2018-08-25T05:06:39.612Z,12.25
2018-08-25T05:07:40.226Z,12.25
2018-08-25T05:08:40.720Z,12.28
2018-08-25T05:09:41.274Z,12.28
2018-08-25T05:10:41.835Z,12.29
2018-08-25T05:11:42.385Z,12.35
2018-08-25T05:12:42.935Z,12.24
2018-08-25T05:13:43.490Z,12.28
2018-08-25T05:14:44.046Z,12.28
2018-08-25T05:15:44.603Z,12.27
2018-08-25T05:16:45.153Z,12.28
2018-08-25T05:17:45.705Z,12.28
2018-08-25T05:18:46.262Z,12.21
2018-08-25T05:19:46.811Z,12.28
2018-08-25T05:20:47.369Z,12.25
2018-08-25T05:21:47.954Z,12.21
2018-08-25T05:22:48.477Z,12.27
2018-08-25T05:23:49.035Z,12.34
2018-08-25T05:24:49.590Z,12.24
2018-08-25T05:25:50.147Z,12.31
2018-08-25T05:26:50.703Z,12.34
2018-08-25T05:27:51.257Z,12.28
2018-08-25T05:28:51.808Z,12.27
2018-08-25T05:29:52.364Z,12.34
2018-08-25T05:30:52.915Z,12.29
2018-08-25T05:31:53.469Z,12.28
2018-08-25T05:32:54.027Z,12.34
2018-08-25T05:33:54.591Z,12.31
2018-08-25T05:34:55.143Z,12.29
2018-08-25T05:35:55.692Z,12.29
2018-08-25T05:36:56.250Z,12.34
2018-08-25T05:37:56.805Z,12.32
2018-08-25T05:38:57.363Z,12.32
2018-08-25T05:39:57.924Z,12.32
2018-08-25T05:40:58.483Z,12.43
2018-08-25T05:41:59.040Z,12.65
2018-08-25T05:42:59.605Z,12.82
2018-08-25T05:44:00.153Z,12.83
2018-08-25T05:45:00.711Z,12.95
2018-08-25T05:46:01.262Z,13.01
2018-08-25T05:47:01.820Z,12.98
2018-08-25T05:48:02.378Z,12.90
2018-08-25T05:49:02.942Z,12.98
2018-08-25T05:50:03.497Z,13.27
2018-08-25T05:51:04.060Z,13.49
2018-08-25T05:52:04.618Z,13.60
2018-08-25T05:53:05.178Z,13.49
2018-08-25T05:54:05.738Z,13.42
2018-08-25T05:55:06.297Z,13.41
2018-08-25T05:56:06.856Z,13.33
2018-08-25T05:57:07.414Z,13.18
2018-08-25T05:58:08.021Z,13.18
2018-08-25T05:59:08.529Z,13.10
2018-08-25T06:00:09.081Z,13.10
2018-08-25T06:01:09.639Z,13.01
2018-08-25T06:02:10.197Z,12.95
2018-08-25T06:03:10.761Z,12.90
2018-08-25T06:04:11.320Z,12.90
2018-08-25T06:05:11.876Z,12.82
2018-08-25T06:06:12.428Z,12.75
2018-08-25T06:07:12.985Z,12.85
2018-08-25T06:08:13.534Z,12.87
2018-08-25T06:09:14.094Z,13.02
2018-08-25T06:10:14.654Z,13.18
2018-08-25T06:11:15.211Z,13.41
2018-08-25T06:12:15.766Z,13.78
2018-08-25T06:13:16.327Z,13.77
2018-08-25T06:14:16.883Z,13.60
2018-08-25T06:15:17.442Z,13.49
2018-08-25T06:16:17.990Z,13.50
2018-08-25T06:17:18.550Z,13.31
2018-08-25T06:18:19.108Z,13.23
2018-08-25T06:19:19.804Z,13.25
2018-08-25T06:20:20.223Z,13.12
2018-08-25T06:21:20.777Z,13.16
2018-08-25T06:22:21.336Z,13.16
2018-08-25T06:23:21.895Z,13.19
2018-08-25T06:24:22.458Z,13.27
2018-08-25T06:25:23.013Z,13.22
2018-08-25T06:26:23.572Z,13.18
2018-08-25T06:27:24.129Z,13.18
2018-08-25T06:28:24.682Z,13.08
2018-08-25T06:29:25.234Z,13.10
2018-08-25T06:30:25.794Z,13.25
2018-08-25T06:31:26.354Z,13.36
2018-08-25T06:32:26.912Z,13.46
2018-08-25T06:33:27.470Z,13.46
2018-08-25T06:34:28.022Z,13.44
2018-08-25T06:35:28.582Z,13.35
2018-08-25T06:36:29.188Z,13.42
2018-08-25T06:37:29.690Z,13.42
2018-08-25T06:38:30.241Z,13.77
2018-08-25T06:39:30.803Z,14.23
2018-08-25T06:40:31.362Z,14.18
2018-08-25T06:41:31.921Z,14.21
2018-08-25T06:42:32.512Z,14.15
2018-08-25T06:43:33.048Z,14.37
2018-08-25T06:44:33.594Z,14.99
2018-08-25T06:45:34.155Z,15.46
2018-08-25T06:46:34.721Z,15.62
2018-08-25T06:47:35.280Z,15.71
2018-08-25T06:48:35.834Z,15.80
2018-08-25T06:49:36.400Z,15.62
2018-08-25T06:50:36.965Z,15.50
2018-08-25T06:51:37.528Z,15.32
2018-08-25T06:52:38.090Z,15.18
2018-08-25T06:53:38.647Z,15.21
2018-08-25T06:54:39.204Z,14.95
2018-08-25T06:55:39.764Z,14.89
2018-08-25T06:56:40.325Z,14.69
2018-08-25T06:57:40.890Z,14.51
2018-08-25T06:58:41.452Z,14.62
2018-08-25T06:59:42.011Z,14.58
2018-08-25T07:00:42.565Z,14.63
2018-08-25T07:01:43.126Z,14.73
2018-08-25T07:02:43.687Z,14.75
2018-08-25T07:03:44.247Z,14.77
2018-08-25T07:04:44.802Z,14.65
2018-08-25T07:05:45.361Z,14.45
2018-08-25T07:06:45.928Z,14.50
2018-08-25T07:07:46.525Z,14.54
2018-08-25T07:08:47.071Z,14.48
2018-08-25T07:09:47.628Z,14.33
2018-08-25T07:10:48.190Z,14.32
2018-08-25T07:11:48.749Z,14.26
2018-08-25T07:12:49.309Z,14.36
2018-08-25T07:13:49.889Z,14.33
2018-08-25T07:14:50.452Z,14.60
2018-08-25T07:15:51.009Z,14.57
2018-08-25T07:16:51.574Z,14.52
2018-08-25T07:17:52.131Z,14.54
2018-08-25T07:18:52.718Z,14.54
2018-08-25T07:19:53.249Z,14.36
2018-08-25T07:20:53.810Z,14.18
2018-08-25T07:21:54.373Z,14.18
2018-08-25T07:22:54.922Z,14.29
2018-08-25T07:23:55.484Z,14.35
2018-08-25T07:24:56.044Z,14.40
2018-08-25T07:25:56.689Z,14.52
2018-08-25T07:26:57.160Z,14.57
2018-08-25T07:27:57.718Z,14.54
2018-08-25T07:28:58.272Z,14.54
2018-08-25T07:29:58.830Z,14.51
2018-08-25T07:30:59.385Z,14.60
2018-08-25T07:31:59.952Z,14.45
2018-08-25T07:33:00.549Z,14.52
2018-08-25T07:34:01.100Z,14.51
2018-08-25T07:35:01.658Z,14.50
2018-08-25T07:36:02.215Z,14.52
2018-08-25T07:37:02.785Z,14.48
2018-08-25T07:38:03.336Z,14.47
2018-08-25T07:39:03.889Z,14.44
2018-08-25T07:40:04.447Z,14.44
2018-08-25T07:41:05.006Z,14.43
2018-08-25T07:42:05.558Z,14.35
2018-08-25T07:43:06.113Z,14.25
2018-08-25T07:44:06.676Z,14.32
2018-08-25T07:45:07.256Z,14.18
2018-08-25T07:46:07.794Z,14.33
2018-08-25T07:47:08.352Z,14.44
2018-08-25T07:48:08.911Z,14.75
2018-08-25T07:49:09.470Z,14.70
2018-08-25T07:50:10.032Z,14.81
2018-08-25T07:51:10.591Z,14.81
2018-08-25T07:52:11.152Z,14.82
2018-08-25T07:53:11.707Z,14.95
2018-08-25T07:54:12.267Z,15.04
2018-08-25T07:55:12.825Z,15.24
2018-08-25T07:56:13.384Z,15.68
2018-08-25T07:57:13.946Z,15.95
2018-08-25T07:58:14.509Z,15.98
2018-08-25T07:59:15.188Z,16.39
2018-08-25T08:00:15.628Z,16.35
2018-08-25T08:01:16.191Z,16.50
2018-08-25T08:02:16.759Z,16.54
2018-08-25T08:03:17.316Z,16.53
2018-08-25T08:04:17.883Z,16.82
2018-08-25T08:05:18.444Z,16.97
2018-08-25T08:06:19.006Z,17.09
2018-08-25T08:07:19.569Z,17.27
2018-08-25T08:08:20.136Z,17.36
2018-08-25T08:09:20.693Z,17.21
2018-08-25T08:10:21.256Z,17.24
2018-08-25T08:11:21.816Z,17.16
2018-08-25T08:12:22.468Z,17.08
2018-08-25T08:13:22.933Z,16.97
2018-08-25T08:14:23.490Z,17.12
2018-08-25T08:15:24.048Z,17.42
2018-08-25T08:16:24.613Z,17.71
2018-08-25T08:17:25.175Z,17.63
2018-08-25T08:18:25.740Z,17.82
2018-08-25T08:19:26.305Z,17.95
2018-08-25T08:20:26.873Z,18.12
2018-08-25T08:21:27.435Z,18.37
2018-08-25T08:22:27.997Z,18.65
2018-08-25T08:23:28.556Z,18.41
2018-08-25T08:24:29.124Z,18.20
2018-08-25T08:25:29.678Z,18.34
2018-08-25T08:26:30.243Z,18.27
2018-08-25T08:27:30.807Z,18.22
2018-08-25T08:28:31.371Z,18.01
2018-08-25T08:29:31.927Z,17.86
2018-08-25T08:30:32.490Z,17.85
2018-08-25T08:31:33.055Z,17.85
2018-08-25T08:32:33.653Z,18.12
2018-08-25T08:33:34.173Z,18.00
2018-08-25T08:34:34.737Z,17.85
2018-08-25T08:35:35.302Z,18.35
2018-08-25T08:36:35.870Z,18.96
2018-08-25T08:37:36.435Z,19.24
2018-08-25T08:38:36.995Z,19.27
2018-08-25T08:39:37.670Z,18.80
2018-08-25T08:40:38.120Z,18.75
2018-08-25T08:41:38.678Z,18.87
2018-08-25T08:42:39.257Z,18.63
2018-08-25T08:43:39.807Z,18.32
2018-08-25T08:44:40.367Z,18.26
2018-08-25T08:45:40.930Z,17.92
2018-08-25T08:46:41.493Z,17.85
2018-08-25T08:47:42.050Z,17.56
2018-08-25T08:48:42.608Z,17.72
2018-08-25T08:49:46.813Z,17.70
2018-08-25T08:50:44.723Z,18.12
2018-08-25T08:51:45.288Z,18.80
2018-08-25T08:52:45.855Z,18.74
2018-08-25T08:53:46.415Z,18.51
2018-08-25T08:54:46.982Z,18.53
2018-08-25T08:55:47.555Z,18.69
2018-08-25T08:56:48.114Z,19.22
2018-08-25T08:57:48.672Z,19.31
2018-08-25T08:58:49.237Z,19.02
2018-08-25T08:59:49.805Z,18.62
2018-08-25T09:00:50.367Z,18.59
2018-08-25T09:01:50.930Z,18.56
2018-08-25T09:02:51.493Z,18.34
2018-08-25T09:03:52.058Z,18.19
2018-08-25T09:04:52.614Z,18.12
2018-08-25T09:05:53.181Z,18.30
2018-08-25T09:06:53.743Z,18.60
2018-08-25T09:07:54.304Z,18.65
2018-08-25T09:08:54.869Z,18.55
2018-08-25T09:09:55.436Z,18.84
2018-08-25T09:10:56.000Z,19.09
2018-08-25T09:11:56.661Z,19.34
2018-08-25T09:12:57.124Z,19.67
2018-08-25T09:13:57.690Z,19.34
2018-08-25T09:14:58.256Z,19.31
2018-08-25T09:15:58.821Z,19.02
2018-08-25T09:16:59.390Z,18.99
2018-08-25T09:17:59.944Z,19.00
2018-08-25T09:19:00.508Z,18.95
2018-08-25T09:20:01.092Z,18.96
2018-08-25T09:21:01.636Z,18.93
2018-08-25T09:22:02.204Z,18.81
2018-08-25T09:23:02.766Z,18.41
2018-08-25T09:24:03.330Z,18.34
2018-08-25T09:25:03.898Z,18.32
2018-08-25T09:26:04.462Z,18.34
2018-08-25T09:27:05.018Z,18.58
2018-08-25T09:28:05.582Z,18.29
2018-08-25T09:29:06.146Z,18.11
2018-08-25T09:30:06.707Z,17.90
2018-08-25T09:31:07.274Z,17.75
2018-08-25T09:32:07.832Z,17.89
2018-08-25T09:33:08.397Z,17.80
2018-08-25T09:34:08.963Z,17.97
2018-08-25T09:35:09.521Z,18.23
2018-08-25T09:36:10.105Z,18.34
2018-08-25T09:37:10.643Z,18.40
2018-08-25T09:38:11.208Z,18.50
2018-08-25T09:39:11.773Z,18.63
2018-08-25T09:40:12.338Z,18.73
2018-08-25T09:41:12.901Z,18.93
2018-08-25T09:42:13.466Z,19.00
2018-08-25T09:43:14.028Z,18.78
2018-08-25T09:44:14.592Z,18.69
2018-08-25T09:45:15.151Z,18.55
2018-08-25T09:46:15.713Z,18.65
2018-08-25T09:47:16.270Z,18.56
2018-08-25T09:48:16.833Z,18.35
2018-08-25T09:49:17.390Z,18.37
2018-08-25T09:50:17.945Z,18.32
2018-08-25T09:51:18.508Z,17.85
2018-08-25T09:52:19.071Z,17.87
2018-08-25T09:53:19.639Z,17.98
2018-08-25T09:54:20.190Z,18.12
2018-08-25T09:55:20.755Z,18.38
2018-08-25T09:56:21.316Z,18.74
2018-08-25T09:57:21.880Z,19.14
2018-08-25T09:58:22.432Z,19.27
2018-08-25T09:59:22.990Z,19.34
2018-08-25T10:00:23.552Z,19.37
2018-08-25T10:01:24.111Z,19.44
2018-08-25T10:02:24.673Z,19.92
2018-08-25T10:03:25.234Z,20.59
2018-08-25T10:04:25.823Z,20.82
2018-08-25T10:05:26.364Z,20.81
2018-08-25T10:06:26.928Z,21.00
2018-08-25T10:07:27.494Z,21.37
2018-08-25T10:08:28.061Z,21.54
2018-08-25T10:09:28.634Z,21.20
2018-08-25T10:10:29.201Z,20.98
2018-08-25T10:11:29.768Z,20.81
2018-08-25T10:12:30.337Z,20.25
2018-08-25T10:13:30.899Z,20.16
2018-08-25T10:14:31.463Z,19.81
2018-08-25T10:15:32.030Z,19.66
2018-08-25T10:16:32.650Z,19.40
2018-08-25T10:17:33.155Z,19.25
2018-08-25T10:18:33.720Z,19.12
2018-08-25T10:19:34.285Z,19.02
2018-08-25T10:20:34.849Z,18.78
2018-08-25T10:21:35.408Z,18.56
2018-08-25T10:22:35.971Z,18.47
2018-08-25T10:23:36.561Z,18.30
2018-08-25T10:24:37.102Z,18.12
2018-08-25T10:25:37.661Z,18.14
2018-08-25T10:26:38.225Z,18.12
2018-08-25T10:27:38.787Z,18.22
2018-08-25T10:28:39.353Z,18.12
2018-08-25T10:29:39.914Z,17.95
2018-08-25T10:30:40.477Z,18.14
2018-08-25T10:31:41.040Z,18.35
2018-08-25T10:32:41.602Z,18.40
2018-08-25T10:33:42.166Z,18.25
2018-08-25T10:34:42.720Z,18.14
2018-08-25T10:35:43.341Z,18.16
2018-08-25T10:36:43.842Z,18.27
2018-08-25T10:37:44.401Z,18.40
2018-08-25T10:38:44.961Z,18.38
2018-08-25T10:39:45.522Z,18.44
2018-08-25T10:40:46.085Z,18.43
2018-08-25T10:41:46.773Z,18.18
2018-08-25T10:42:47.210Z,18.10
2018-08-25T10:43:47.768Z,17.82
2018-08-25T10:44:48.322Z,17.72
2018-08-25T10:45:48.881Z,17.49
2018-08-25T10:46:49.444Z,17.29
2018-08-25T10:47:50.005Z,17.19
2018-08-25T10:48:50.568Z,17.01
2018-08-25T10:49:51.129Z,16.93
2018-08-25T10:50:51.741Z,16.79
2018-08-25T10:51:52.304Z,16.78
2018-08-25T10:52:52.864Z,16.78
2018-08-25T10:53:53.436Z,16.86
2018-08-25T10:54:53.980Z,16.82
2018-08-25T10:55:54.541Z,16.96
2018-08-25T10:56:55.103Z,16.96
2018-08-25T10:57:55.667Z,17.16
2018-08-25T10:58:56.228Z,17.39
2018-08-25T10:59:56.790Z,17.49
2018-08-25T11:00:57.505Z,17.59
2018-08-25T11:01:57.912Z,17.72
2018-08-25T11:02:58.474Z,17.98
2018-08-25T11:03:59.037Z,18.44
2018-08-25T11:04:59.602Z,18.68
2018-08-25T11:06:00.164Z,18.63
2018-08-25T11:07:00.730Z,19.09
2018-08-25T11:08:01.293Z,19.36
2018-08-25T11:09:01.864Z,19.67
2018-08-25T11:10:02.428Z,20.10
2018-08-25T11:11:02.992Z,20.55
2018-08-25T11:12:03.554Z,20.78
2018-08-25T11:13:04.121Z,21.02
2018-08-25T11:14:04.688Z,21.30
2018-08-25T11:15:05.253Z,21.39
2018-08-25T11:16:05.822Z,21.49
2018-08-25T11:17:06.387Z,21.36
2018-08-25T11:18:06.946Z,21.49
2018-08-25T11:19:07.515Z,21.60
2018-08-25T11:20:08.073Z,22.02
2018-08-25T11:21:08.641Z,22.11
2018-08-25T11:22:09.211Z,22.24
2018-08-25T11:23:09.777Z,22.31
2018-08-25T11:24:10.347Z,22.60
2018-08-25T11:25:10.914Z,22.79
2018-08-25T11:26:11.482Z,23.13
2018-08-25T11:27:12.051Z,22.99
2018-08-25T11:28:12.619Z,23.00
2018-08-25T11:29:13.198Z,23.27
2018-08-25T11:30:13.753Z,22.81
2018-08-25T11:31:14.322Z,22.50
2018-08-25T11:32:14.899Z,22.51
2018-08-25T11:33:15.460Z,22.44
2018-08-25T11:34:16.021Z,22.28
2018-08-25T11:35:16.590Z,22.03
2018-08-25T11:36:17.146Z,22.01
2018-08-25T11:37:17.777Z,21.99
2018-08-25T11:38:18.266Z,21.99
2018-08-25T11:39:18.832Z,21.89
2018-08-25T11:40:19.397Z,21.89
2018-08-25T11:41:19.963Z,21.45
2018-08-25T11:42:20.534Z,21.21
2018-08-25T11:43:21.085Z,21.03
2018-08-25T11:44:21.655Z,20.95
2018-08-25T11:45:22.212Z,20.69
2018-08-25T11:46:22.773Z,19.94
2018-08-25T11:47:23.340Z,19.81
2018-08-25T11:48:23.903Z,19.62
2018-08-25T11:49:24.462Z,19.56
2018-08-25T11:50:25.020Z,19.44
2018-08-25T11:51:25.585Z,19.15
2018-08-25T11:52:26.139Z,18.93
2018-08-25T11:53:26.704Z,18.65
2018-08-25T11:54:27.267Z,18.20
2018-08-25T11:55:27.829Z,17.79
2018-08-25T11:56:28.391Z,17.36
2018-08-25T11:57:28.955Z,17.00
2018-08-25T11:58:29.514Z,16.43
2018-08-25T11:59:30.066Z,16.13
2018-08-25T12:00:30.617Z,15.87
2018-08-25T12:01:31.181Z,15.65
2018-08-25T12:02:31.743Z,15.28
2018-08-25T12:03:32.463Z,15.18
2018-08-25T12:04:32.859Z,15.14
2018-08-25T12:05:33.420Z,15.04
2018-08-25T12:06:33.982Z,14.92
2018-08-25T12:07:34.548Z,14.73
2018-08-25T12:08:35.110Z,14.63
2018-08-25T12:09:35.716Z,14.60
2018-08-25T12:10:36.223Z,14.52
2018-08-25T12:11:36.781Z,14.54
2018-08-25T12:12:37.341Z,14.62
2018-08-25T12:13:37.900Z,14.68
2018-08-25T12:14:38.464Z,14.73
2018-08-25T12:15:39.016Z,14.60
2018-08-25T12:16:39.575Z,14.70
2018-08-25T12:17:40.131Z,14.82
2018-08-25T12:18:40.691Z,14.96
2018-08-25T12:19:41.253Z,15.28
2018-08-25T12:20:41.812Z,15.68
2018-08-25T12:21:42.374Z,16.04
2018-08-25T12:22:42.934Z,16.41
2018-08-25T12:23:43.500Z,16.75
2018-08-25T12:24:44.058Z,17.05
2018-08-25T12:25:44.618Z,17.18
2018-08-25T12:26:45.173Z,17.30
2018-08-25T12:27:45.735Z,17.55
2018-08-25T12:28:46.294Z,17.82
2018-08-25T12:29:46.854Z,17.83
2018-08-25T12:30:47.418Z,17.98
2018-08-25T12:31:47.973Z,18.04
2018-08-25T12:32:48.528Z,18.11
2018-08-25T12:33:49.090Z,18.18
2018-08-25T12:34:49.649Z,18.11
2018-08-25T12:35:50.212Z,18.35
2018-08-25T12:36:50.775Z,18.41
2018-08-25T12:37:51.338Z,18.63
2018-08-25T12:38:51.899Z,18.65
2018-08-25T12:39:52.454Z,18.71
2018-08-25T12:40:53.018Z,18.89
2018-08-25T12:41:53.582Z,19.34
2018-08-25T12:42:54.135Z,19.71
2018-08-25T12:43:54.702Z,20.17
2018-08-25T12:44:55.275Z,20.42
2018-08-25T12:45:55.832Z,21.18
2018-08-25T12:46:56.396Z,21.60
2018-08-25T12:47:56.961Z,21.61
2018-08-25T12:48:57.594Z,21.22
2018-08-25T12:49:58.083Z,20.84
2018-08-25T12:50:58.652Z,20.98
2018-08-25T12:51:59.208Z,20.82
2018-08-25T12:52:59.770Z,20.69
2018-08-25T12:54:00.326Z,20.16
2018-08-25T12:55:00.890Z,20.54
2018-08-25T12:56:01.453Z,21.00
2018-08-25T12:57:02.016Z,20.88
2018-08-25T12:58:02.634Z,20.60
2018-08-25T12:59:03.172Z,20.28
2018-08-25T13:00:03.707Z,20.14